KDOV/DOV METAR and TAF weather

Enter ICAO airport designator
Station Type Date Time Source
KDOV METAR 2020/07/12 05:56 UTC NOAA

KDOV 120556Z 23005KT 10SM CLR 23/19 A2975 RMK AO2A SLP077 T02290188 10293 20229 50001 $


Station Type Date Time Source
KDOV Decoded METAR 2020/07/12 05:56 UTC NOAA

Dover Air Force Base, DE, United States (KDOV) 39-08N 075-28W
Jul 12, 2020 - 01:56 AM EDT / 2020.07.12 0556 UTC
Wind: from the SW (230 degrees) at 6 MPH (5 KT):0
Visibility: 10 mile(s):0
Sky conditions: clear
Temperature: 73.2 F (22.9 C)
Dew Point: 65.8 F (18.8 C)
Relative Humidity: 77%
Pressure (altimeter): 29.75 in. Hg (1007 hPa)
Pressure tendency: 0.00 inches (0.1 hPa) higher than three hours ago
ob: KDOV 120556Z 23005KT 10SM CLR 23/19 A2975 RMK AO2A SLP077 T02290188 10293 20229 50001
cycle: 6

Station Type Date Time Source
KDOV TAF 2020/07/12 00:09 UTC NOAA

TAF TAF KDOV 120000Z 1200/1306 26009KT 9999 SCT060 QNH2970INS
BECMG 1203/1204 29009KT 9999 FEW070 QNH2973INS
BECMG 1206/1207 25009KT 9999 SKC QNH2975INS
BECMG 1215/1216 25012KT 9999 SCT050 QNH2975INS
BECMG 1219/1220 22009KT 9999 FEW060 QNH2974INS
BECMG 1301/1302 19009KT 9999 FEW045 SCT090 QNH2974INS TX33/1219Z TN22/1209Z

Example: see airport list